sensor_id;sensor_type;location;lat;lon;timestamp;temperature;humidity
66190;DHT22;52992;52.084;5.412;2023-07-13T00:00:30;22.60;51.60
66190;DHT22;52992;52.084;5.412;2023-07-13T00:02:58;22.60;51.60
66190;DHT22;52992;52.084;5.412;2023-07-13T00:05:26;22.60;51.70
66190;DHT22;52992;52.084;5.412;2023-07-13T00:07:54;22.60;51.60
66190;DHT22;52992;52.084;5.412;2023-07-13T00:10:21;22.50;51.50
66190;DHT22;52992;52.084;5.412;2023-07-13T00:12:49;22.50;51.80
66190;DHT22;52992;52.084;5.412;2023-07-13T00:15:19;22.40;51.60
66190;DHT22;52992;52.084;5.412;2023-07-13T00:17:50;22.40;51.70
66190;DHT22;52992;52.084;5.412;2023-07-13T00:20:18;22.40;51.90
66190;DHT22;52992;52.084;5.412;2023-07-13T00:22:49;22.40;51.80
66190;DHT22;52992;52.084;5.412;2023-07-13T00:25:16;22.40;51.80
66190;DHT22;52992;52.084;5.412;2023-07-13T00:27:44;22.40;51.80
66190;DHT22;52992;52.084;5.412;2023-07-13T00:30:11;22.30;51.70
66190;DHT22;52992;52.084;5.412;2023-07-13T00:32:38;22.30;51.90
66190;DHT22;52992;52.084;5.412;2023-07-13T00:35:06;22.30;52.00
66190;DHT22;52992;52.084;5.412;2023-07-13T00:37:34;22.30;51.90
66190;DHT22;52992;52.084;5.412;2023-07-13T00:40:04;22.30;52.00
66190;DHT22;52992;52.084;5.412;2023-07-13T00:42:32;22.30;52.30
66190;DHT22;52992;52.084;5.412;2023-07-13T00:47:42;22.30;52.20
66190;DHT22;52992;52.084;5.412;2023-07-13T00:50:12;22.30;52.30
66190;DHT22;52992;52.084;5.412;2023-07-13T00:52:45;22.30;52.40
66190;DHT22;52992;52.084;5.412;2023-07-13T00:55:13;22.30;52.30
66190;DHT22;52992;52.084;5.412;2023-07-13T00:57:41;22.30;52.30
66190;DHT22;52992;52.084;5.412;2023-07-13T01:00:09;22.20;52.30
66190;DHT22;52992;52.084;5.412;2023-07-13T01:02:39;22.20;52.40
66190;DHT22;52992;52.084;5.412;2023-07-13T01:05:15;22.10;52.60
66190;DHT22;52992;52.084;5.412;2023-07-13T01:07:44;22.10;52.70
66190;DHT22;52992;52.084;5.412;2023-07-13T01:10:12;22.10;52.80
66190;DHT22;52992;52.084;5.412;2023-07-13T01:12:39;22.10;52.90
66190;DHT22;52992;52.084;5.412;2023-07-13T01:15:33;22.10;52.90
66190;DHT22;52992;52.084;5.412;2023-07-13T01:18:01;22.00;52.80
66190;DHT22;52992;52.084;5.412;2023-07-13T01:20:29;22.00;52.80
66190;DHT22;52992;52.084;5.412;2023-07-13T01:22:56;22.00;52.90
66190;DHT22;52992;52.084;5.412;2023-07-13T01:25:23;22.00;53.00
66190;DHT22;52992;52.084;5.412;2023-07-13T01:27:50;21.90;53.10
66190;DHT22;52992;52.084;5.412;2023-07-13T01:30:17;21.90;53.20
66190;DHT22;52992;52.084;5.412;2023-07-13T01:32:44;21.80;53.20
66190;DHT22;52992;52.084;5.412;2023-07-13T01:35:11;21.80;53.10
66190;DHT22;52992;52.084;5.412;2023-07-13T01:37:39;21.80;53.10
66190;DHT22;52992;52.084;5.412;2023-07-13T01:40:07;21.70;53.20
66190;DHT22;52992;52.084;5.412;2023-07-13T01:42:36;21.70;53.20
66190;DHT22;52992;52.084;5.412;2023-07-13T01:45:03;21.70;53.20
66190;DHT22;52992;52.084;5.412;2023-07-13T01:47:30;21.70;53.20
66190;DHT22;52992;52.084;5.412;2023-07-13T01:49:58;21.70;53.40
66190;DHT22;52992;52.084;5.412;2023-07-13T01:52:25;21.60;53.40
66190;DHT22;52992;52.084;5.412;2023-07-13T01:54:51;21.60;53.50
66190;DHT22;52992;52.084;5.412;2023-07-13T01:57:18;21.60;53.70
66190;DHT22;52992;52.084;5.412;2023-07-13T01:59:45;21.70;53.80
66190;DHT22;52992;52.084;5.412;2023-07-13T02:02:12;21.60;53.80
66190;DHT22;52992;52.084;5.412;2023-07-13T02:04:40;21.60;53.80
66190;DHT22;52992;52.084;5.412;2023-07-13T02:07:08;21.60;53.90
66190;DHT22;52992;52.084;5.412;2023-07-13T02:09:35;21.50;54.00
66190;DHT22;52992;52.084;5.412;2023-07-13T02:12:03;21.50;54.10
66190;DHT22;52992;52.084;5.412;2023-07-13T02:14:32;21.50;53.90
66190;DHT22;52992;52.084;5.412;2023-07-13T02:16:59;21.50;54.00
66190;DHT22;52992;52.084;5.412;2023-07-13T02:19:26;21.40;53.80
66190;DHT22;52992;52.084;5.412;2023-07-13T02:21:53;21.40;53.80
66190;DHT22;52992;52.084;5.412;2023-07-13T02:24:20;21.40;53.90
66190;DHT22;52992;52.084;5.412;2023-07-13T02:26:47;21.30;54.00
66190;DHT22;52992;52.084;5.412;2023-07-13T02:29:14;21.30;54.20
66190;DHT22;52992;52.084;5.412;2023-07-13T02:31:41;21.30;54.40
66190;DHT22;52992;52.084;5.412;2023-07-13T02:34:08;21.30;54.40
66190;DHT22;52992;52.084;5.412;2023-07-13T02:36:36;21.30;54.50
66190;DHT22;52992;52.084;5.412;2023-07-13T02:39:06;21.20;54.30
66190;DHT22;52992;52.084;5.412;2023-07-13T02:41:35;21.20;54.40
66190;DHT22;52992;52.084;5.412;2023-07-13T02:44:02;21.20;54.40
66190;DHT22;52992;52.084;5.412;2023-07-13T02:46:31;21.20;54.50
66190;DHT22;52992;52.084;5.412;2023-07-13T02:48:58;21.10;54.60
66190;DHT22;52992;52.084;5.412;2023-07-13T02:51:25;21.10;54.90
66190;DHT22;52992;52.084;5.412;2023-07-13T02:53:52;21.10;55.20
66190;DHT22;52992;52.084;5.412;2023-07-13T02:56:23;21.10;55.20
66190;DHT22;52992;52.084;5.412;2023-07-13T02:58:50;21.00;55.20
66190;DHT22;52992;52.084;5.412;2023-07-13T03:01:17;21.10;55.30
66190;DHT22;52992;52.084;5.412;2023-07-13T03:03:46;21.00;55.30
66190;DHT22;52992;52.084;5.412;2023-07-13T03:06:14;21.10;55.50
66190;DHT22;52992;52.084;5.412;2023-07-13T03:08:46;21.00;55.30
66190;DHT22;52992;52.084;5.412;2023-07-13T03:11:17;21.00;55.40
66190;DHT22;52992;52.084;5.412;2023-07-13T03:13:47;21.00;55.40
66190;DHT22;52992;52.084;5.412;2023-07-13T03:16:15;21.00;55.60
66190;DHT22;52992;52.084;5.412;2023-07-13T03:18:47;21.00;55.70
66190;DHT22;52992;52.084;5.412;2023-07-13T03:21:16;21.00;55.80
66190;DHT22;52992;52.084;5.412;2023-07-13T03:23:43;21.00;55.90
66190;DHT22;52992;52.084;5.412;2023-07-13T03:26:16;20.90;56.10
66190;DHT22;52992;52.084;5.412;2023-07-13T03:28:45;21.00;56.10
66190;DHT22;52992;52.084;5.412;2023-07-13T03:31:19;21.00;56.20
66190;DHT22;52992;52.084;5.412;2023-07-13T03:33:47;21.00;56.30
66190;DHT22;52992;52.084;5.412;2023-07-13T03:36:19;21.00;56.30
66190;DHT22;52992;52.084;5.412;2023-07-13T03:38:48;20.90;56.40
66190;DHT22;52992;52.084;5.412;2023-07-13T03:41:19;20.90;56.60
66190;DHT22;52992;52.084;5.412;2023-07-13T03:43:48;21.00;56.60
66190;DHT22;52992;52.084;5.412;2023-07-13T03:46:17;21.00;56.60
66190;DHT22;52992;52.084;5.412;2023-07-13T03:48:46;20.90;57.20
66190;DHT22;52992;52.084;5.412;2023-07-13T03:51:15;20.80;57.40
66190;DHT22;52992;52.084;5.412;2023-07-13T03:53:44;20.90;57.30
66190;DHT22;52992;52.084;5.412;2023-07-13T03:56:14;20.90;57.20
66190;DHT22;52992;52.084;5.412;2023-07-13T03:58:45;20.90;57.10
66190;DHT22;52992;52.084;5.412;2023-07-13T04:01:18;21.00;57.20
66190;DHT22;52992;52.084;5.412;2023-07-13T04:03:45;21.00;57.20
66190;DHT22;52992;52.084;5.412;2023-07-13T04:06:16;21.00;57.20
66190;DHT22;52992;52.084;5.412;2023-07-13T04:08:53;21.00;57.10
66190;DHT22;52992;52.084;5.412;2023-07-13T04:11:22;21.00;57.10
66190;DHT22;52992;52.084;5.412;2023-07-13T04:13:50;21.00;57.10
66190;DHT22;52992;52.084;5.412;2023-07-13T04:16:18;21.00;57.00
66190;DHT22;52992;52.084;5.412;2023-07-13T04:18:46;21.10;57.20
66190;DHT22;52992;52.084;5.412;2023-07-13T04:21:14;21.10;57.20
66190;DHT22;52992;52.084;5.412;2023-07-13T04:23:41;21.10;57.10
66190;DHT22;52992;52.084;5.412;2023-07-13T04:26:09;21.20;56.90
66190;DHT22;52992;52.084;5.412;2023-07-13T04:28:36;21.20;56.90
66190;DHT22;52992;52.084;5.412;2023-07-13T04:31:03;21.30;56.80
66190;DHT22;52992;52.084;5.412;2023-07-13T04:33:31;21.30;56.80
66190;DHT22;52992;52.084;5.412;2023-07-13T04:35:58;21.30;56.80
66190;DHT22;52992;52.084;5.412;2023-07-13T04:38:31;21.40;56.70
66190;DHT22;52992;52.084;5.412;2023-07-13T04:41:00;21.40;56.80
66190;DHT22;52992;52.084;5.412;2023-07-13T04:43:28;21.40;56.70
66190;DHT22;52992;52.084;5.412;2023-07-13T04:45:55;21.40;57.50
66190;DHT22;52992;52.084;5.412;2023-07-13T04:48:23;21.40;56.80
66190;DHT22;52992;52.084;5.412;2023-07-13T04:50:57;21.40;56.80
66190;DHT22;52992;52.084;5.412;2023-07-13T04:53:25;21.40;56.80
66190;DHT22;52992;52.084;5.412;2023-07-13T04:55:52;21.50;56.80
66190;DHT22;52992;52.084;5.412;2023-07-13T04:58:20;21.50;56.80
66190;DHT22;52992;52.084;5.412;2023-07-13T05:00:48;21.50;56.90
66190;DHT22;52992;52.084;5.412;2023-07-13T05:03:15;21.50;57.00
66190;DHT22;52992;52.084;5.412;2023-07-13T05:05:43;21.60;56.80
66190;DHT22;52992;52.084;5.412;2023-07-13T05:08:10;21.60;56.70
66190;DHT22;52992;52.084;5.412;2023-07-13T05:10:36;21.70;56.70
66190;DHT22;52992;52.084;5.412;2023-07-13T05:13:03;21.70;56.70
66190;DHT22;52992;52.084;5.412;2023-07-13T05:15:30;21.80;57.50
66190;DHT22;52992;52.084;5.412;2023-07-13T05:17:57;21.80;56.60
66190;DHT22;52992;52.084;5.412;2023-07-13T05:20:24;21.80;57.40
66190;DHT22;52992;52.084;5.412;2023-07-13T05:22:51;21.90;56.80
66190;DHT22;52992;52.084;5.412;2023-07-13T05:25:18;21.90;56.70
66190;DHT22;52992;52.084;5.412;2023-07-13T05:27:44;22.00;56.70
66190;DHT22;52992;52.084;5.412;2023-07-13T05:30:13;22.10;56.70
66190;DHT22;52992;52.084;5.412;2023-07-13T05:32:40;22.10;56.40
66190;DHT22;52992;52.084;5.412;2023-07-13T05:35:07;22.20;56.50
66190;DHT22;52992;52.084;5.412;2023-07-13T05:37:34;22.20;56.60
66190;DHT22;52992;52.084;5.412;2023-07-13T05:40:01;22.20;57.40
66190;DHT22;52992;52.084;5.412;2023-07-13T05:42:28;22.20;56.70
66190;DHT22;52992;52.084;5.412;2023-07-13T05:44:57;22.20;56.80
66190;DHT22;52992;52.084;5.412;2023-07-13T05:47:24;22.30;56.90
66190;DHT22;52992;52.084;5.412;2023-07-13T05:49:51;22.20;56.80
66190;DHT22;52992;52.084;5.412;2023-07-13T05:52:18;22.20;57.00
66190;DHT22;52992;52.084;5.412;2023-07-13T05:54:45;22.30;57.20
66190;DHT22;52992;52.084;5.412;2023-07-13T05:57:12;22.30;57.00
66190;DHT22;52992;52.084;5.412;2023-07-13T05:59:39;22.30;57.10
66190;DHT22;52992;52.084;5.412;2023-07-13T06:02:09;22.40;57.20
66190;DHT22;52992;52.084;5.412;2023-07-13T06:04:36;22.50;57.90
66190;DHT22;52992;52.084;5.412;2023-07-13T06:07:03;22.50;57.10
66190;DHT22;52992;52.084;5.412;2023-07-13T06:09:30;22.50;57.20
66190;DHT22;52992;52.084;5.412;2023-07-13T06:11:57;22.50;57.20
66190;DHT22;52992;52.084;5.412;2023-07-13T06:14:25;22.70;56.80
66190;DHT22;52992;52.084;5.412;2023-07-13T06:16:51;22.80;56.40
66190;DHT22;52992;52.084;5.412;2023-07-13T06:19:18;22.80;56.60
66190;DHT22;52992;52.084;5.412;2023-07-13T06:21:45;22.80;56.70
66190;DHT22;52992;52.084;5.412;2023-07-13T06:24:12;22.90;56.70
66190;DHT22;52992;52.084;5.412;2023-07-13T06:26:39;23.00;56.30
66190;DHT22;52992;52.084;5.412;2023-07-13T06:29:06;23.10;57.20
66190;DHT22;52992;52.084;5.412;2023-07-13T06:31:33;23.20;56.20
66190;DHT22;52992;52.084;5.412;2023-07-13T06:34:00;23.30;55.70
66190;DHT22;52992;52.084;5.412;2023-07-13T06:36:27;23.40;55.60
66190;DHT22;52992;52.084;5.412;2023-07-13T06:38:53;23.40;55.80
66190;DHT22;52992;52.084;5.412;2023-07-13T06:41:20;23.40;55.90
66190;DHT22;52992;52.084;5.412;2023-07-13T06:43:48;23.40;55.90
66190;DHT22;52992;52.084;5.412;2023-07-13T06:46:15;23.50;55.80
66190;DHT22;52992;52.084;5.412;2023-07-13T06:48:42;23.50;55.80
66190;DHT22;52992;52.084;5.412;2023-07-13T06:51:09;23.50;55.60
66190;DHT22;52992;52.084;5.412;2023-07-13T06:53:36;23.60;55.70
66190;DHT22;52992;52.084;5.412;2023-07-13T06:56:03;23.70;55.50
66190;DHT22;52992;52.084;5.412;2023-07-13T06:58:30;23.90;55.20
66190;DHT22;52992;52.084;5.412;2023-07-13T07:00:57;24.00;55.00
66190;DHT22;52992;52.084;5.412;2023-07-13T07:03:24;23.90;55.10
66190;DHT22;52992;52.084;5.412;2023-07-13T07:05:51;23.90;55.20
66190;DHT22;52992;52.084;5.412;2023-07-13T07:08:18;24.00;55.20
66190;DHT22;52992;52.084;5.412;2023-07-13T07:10:45;23.90;55.40
66190;DHT22;52992;52.084;5.412;2023-07-13T07:13:13;23.90;55.20
66190;DHT22;52992;52.084;5.412;2023-07-13T07:15:40;23.90;55.20
66190;DHT22;52992;52.084;5.412;2023-07-13T07:18:07;23.80;55.30
66190;DHT22;52992;52.084;5.412;2023-07-13T07:20:34;23.90;55.40
66190;DHT22;52992;52.084;5.412;2023-07-13T07:23:01;23.90;55.30
66190;DHT22;52992;52.084;5.412;2023-07-13T07:25:28;23.90;55.40
66190;DHT22;52992;52.084;5.412;2023-07-13T07:27:58;24.00;56.10
66190;DHT22;52992;52.084;5.412;2023-07-13T07:30:28;23.90;55.40
66190;DHT22;52992;52.084;5.412;2023-07-13T07:32:58;23.90;55.40
66190;DHT22;52992;52.084;5.412;2023-07-13T07:35:28;23.90;55.60
66190;DHT22;52992;52.084;5.412;2023-07-13T07:38:01;24.00;55.30
66190;DHT22;52992;52.084;5.412;2023-07-13T07:40:28;24.00;55.30
66190;DHT22;52992;52.084;5.412;2023-07-13T07:42:58;24.00;55.50
66190;DHT22;52992;52.084;5.412;2023-07-13T07:45:26;24.10;55.20
66190;DHT22;52992;52.084;5.412;2023-07-13T07:47:53;24.10;55.10
66190;DHT22;52992;52.084;5.412;2023-07-13T07:50:26;24.20;55.10
66190;DHT22;52992;52.084;5.412;2023-07-13T07:52:54;24.30;55.50
66190;DHT22;52992;52.084;5.412;2023-07-13T07:55:23;24.30;56.00
66190;DHT22;52992;52.084;5.412;2023-07-13T07:57:56;24.30;56.20
66190;DHT22;52992;52.084;5.412;2023-07-13T08:00:26;24.20;56.20
66190;DHT22;52992;52.084;5.412;2023-07-13T08:03:16;24.10;56.30
66190;DHT22;52992;52.084;5.412;2023-07-13T08:05:45;24.30;57.00
66190;DHT22;52992;52.084;5.412;2023-07-13T08:08:33;24.50;55.50
66190;DHT22;52992;52.084;5.412;2023-07-13T08:11:06;24.60;55.10
66190;DHT22;52992;52.084;5.412;2023-07-13T08:13:36;24.50;56.10
66190;DHT22;52992;52.084;5.412;2023-07-13T08:16:05;24.60;55.20
66190;DHT22;52992;52.084;5.412;2023-07-13T08:18:32;24.80;54.90
66190;DHT22;52992;52.084;5.412;2023-07-13T08:21:04;25.30;54.00
66190;DHT22;52992;52.084;5.412;2023-07-13T08:23:31;25.70;52.70
66190;DHT22;52992;52.084;5.412;2023-07-13T08:26:00;25.80;51.90
66190;DHT22;52992;52.084;5.412;2023-07-13T08:28:32;25.90;50.90
66190;DHT22;52992;52.084;5.412;2023-07-13T08:31:04;25.80;50.80
66190;DHT22;52992;52.084;5.412;2023-07-13T08:33:31;25.60;51.20
66190;DHT22;52992;52.084;5.412;2023-07-13T08:35:58;25.50;51.10
66190;DHT22;52992;52.084;5.412;2023-07-13T08:38:25;25.50;50.90
66190;DHT22;52992;52.084;5.412;2023-07-13T08:40:55;25.40;50.60
66190;DHT22;52992;52.084;5.412;2023-07-13T08:43:28;25.40;50.60
66190;DHT22;52992;52.084;5.412;2023-07-13T08:48:41;25.20;49.60
66190;DHT22;52992;52.084;5.412;2023-07-13T08:54:00;25.10;49.20
66190;DHT22;52992;52.084;5.412;2023-07-13T08:56:29;24.90;49.90
66190;DHT22;52992;52.084;5.412;2023-07-13T08:59:00;24.80;50.80
66190;DHT22;52992;52.084;5.412;2023-07-13T09:04:14;24.60;51.90
66190;DHT22;52992;52.084;5.412;2023-07-13T09:15:34;24.50;51.90
66190;DHT22;52992;52.084;5.412;2023-07-13T09:18:10;24.70;51.40
66190;DHT22;52992;52.084;5.412;2023-07-13T09:20:57;25.20;50.80
66190;DHT22;52992;52.084;5.412;2023-07-13T09:23:28;25.70;49.80
66190;DHT22;52992;52.084;5.412;2023-07-13T09:26:11;25.90;49.00
66190;DHT22;52992;52.084;5.412;2023-07-13T09:28:42;25.80;48.80
66190;DHT22;52992;52.084;5.412;2023-07-13T09:31:14;25.80;49.10
66190;DHT22;52992;52.084;5.412;2023-07-13T09:33:42;25.90;48.60
66190;DHT22;52992;52.084;5.412;2023-07-13T09:39:14;26.10;48.30
66190;DHT22;52992;52.084;5.412;2023-07-13T09:42:01;26.00;48.10
66190;DHT22;52992;52.084;5.412;2023-07-13T09:44:34;26.10;47.60
66190;DHT22;52992;52.084;5.412;2023-07-13T09:47:02;26.50;46.60
66190;DHT22;52992;52.084;5.412;2023-07-13T09:49:34;26.50;46.70
66190;DHT22;52992;52.084;5.412;2023-07-13T09:52:05;26.30;46.70
66190;DHT22;52992;52.084;5.412;2023-07-13T09:54:36;26.10;47.30
66190;DHT22;52992;52.084;5.412;2023-07-13T09:57:13;25.90;47.80
66190;DHT22;52992;52.084;5.412;2023-07-13T09:59:44;25.70;47.90
66190;DHT22;52992;52.084;5.412;2023-07-13T10:02:28;25.50;48.60
66190;DHT22;52992;52.084;5.412;2023-07-13T10:05:07;25.20;49.60
66190;DHT22;52992;52.084;5.412;2023-07-13T10:07:43;25.10;50.70
66190;DHT22;52992;52.084;5.412;2023-07-13T10:10:16;24.90;51.60
66190;DHT22;52992;52.084;5.412;2023-07-13T10:12:44;24.80;52.00
66190;DHT22;52992;52.084;5.412;2023-07-13T10:15:37;24.60;52.20
66190;DHT22;52992;52.084;5.412;2023-07-13T10:18:04;24.50;52.80
66190;DHT22;52992;52.084;5.412;2023-07-13T10:20:32;24.80;52.10
66190;DHT22;52992;52.084;5.412;2023-07-13T10:23:02;26.10;47.90
66190;DHT22;52992;52.084;5.412;2023-07-13T10:25:33;27.80;42.20
66190;DHT22;52992;52.084;5.412;2023-07-13T10:28:37;29.50;38.50
66190;DHT22;52992;52.084;5.412;2023-07-13T10:31:10;30.40;36.20
66190;DHT22;52992;52.084;5.412;2023-07-13T10:33:39;31.00;34.80
66190;DHT22;52992;52.084;5.412;2023-07-13T10:36:21;31.30;33.80
66190;DHT22;52992;52.084;5.412;2023-07-13T10:38:51;30.60;34.50
66190;DHT22;52992;52.084;5.412;2023-07-13T10:41:21;29.10;37.60
66190;DHT22;52992;52.084;5.412;2023-07-13T10:43:54;27.90;39.60
66190;DHT22;52992;52.084;5.412;2023-07-13T10:46:24;27.10;42.20
66190;DHT22;52992;52.084;5.412;2023-07-13T10:48:59;26.60;43.10
66190;DHT22;52992;52.084;5.412;2023-07-13T10:51:28;26.40;45.00
66190;DHT22;52992;52.084;5.412;2023-07-13T10:56:46;28.30;38.70
66190;DHT22;52992;52.084;5.412;2023-07-13T10:59:20;29.30;36.70
66190;DHT22;52992;52.084;5.412;2023-07-13T11:04:25;30.70;32.60
66190;DHT22;52992;52.084;5.412;2023-07-13T11:07:16;31.10;32.40
66190;DHT22;52992;52.084;5.412;2023-07-13T11:09:50;32.10;31.20
66190;DHT22;52992;52.084;5.412;2023-07-13T11:22:52;32.30;30.70
66190;DHT22;52992;52.084;5.412;2023-07-13T11:27:51;31.80;31.90
66190;DHT22;52992;52.084;5.412;2023-07-13T11:30:31;31.20;32.60
66190;DHT22;52992;52.084;5.412;2023-07-13T11:38:37;31.50;33.40
66190;DHT22;52992;52.084;5.412;2023-07-13T11:41:21;31.00;33.00
66190;DHT22;52992;52.084;5.412;2023-07-13T11:44:01;30.60;33.20
66190;DHT22;52992;52.084;5.412;2023-07-13T11:46:29;30.20;34.40
66190;DHT22;52992;52.084;5.412;2023-07-13T11:48:56;29.40;35.90
66190;DHT22;52992;52.084;5.412;2023-07-13T11:51:32;28.50;38.80
66190;DHT22;52992;52.084;5.412;2023-07-13T11:59:47;25.60;55.30
66190;DHT22;52992;52.084;5.412;2023-07-13T12:02:19;24.90;58.80
66190;DHT22;52992;52.084;5.412;2023-07-13T12:04:50;24.40;60.70
66190;DHT22;52992;52.084;5.412;2023-07-13T12:07:19;24.10;62.60
66190;DHT22;52992;52.084;5.412;2023-07-13T12:09:46;24.00;64.20
66190;DHT22;52992;52.084;5.412;2023-07-13T12:12:17;24.10;65.30
66190;DHT22;52992;52.084;5.412;2023-07-13T12:14:45;24.20;65.90
66190;DHT22;52992;52.084;5.412;2023-07-13T12:17:20;24.30;66.70
66190;DHT22;52992;52.084;5.412;2023-07-13T12:19:49;24.50;68.20
66190;DHT22;52992;52.084;5.412;2023-07-13T12:22:18;25.00;65.00
66190;DHT22;52992;52.084;5.412;2023-07-13T12:24:47;25.40;65.30
66190;DHT22;52992;52.084;5.412;2023-07-13T12:27:21;25.70;64.70
66190;DHT22;52992;52.084;5.412;2023-07-13T12:29:59;26.10;65.50
66190;DHT22;52992;52.084;5.412;2023-07-13T12:32:27;26.50;64.20
66190;DHT22;52992;52.084;5.412;2023-07-13T12:35:14;26.40;61.80
66190;DHT22;52992;52.084;5.412;2023-07-13T12:37:51;26.20;64.50
66190;DHT22;52992;52.084;5.412;2023-07-13T12:40:20;25.90;62.70
66190;DHT22;52992;52.084;5.412;2023-07-13T12:42:51;25.60;63.20
66190;DHT22;52992;52.084;5.412;2023-07-13T12:45:26;25.70;63.70
66190;DHT22;52992;52.084;5.412;2023-07-13T12:47:58;25.80;63.80
66190;DHT22;52992;52.084;5.412;2023-07-13T12:50:39;26.10;63.90
66190;DHT22;52992;52.084;5.412;2023-07-13T12:53:14;26.40;63.30
66190;DHT22;52992;52.084;5.412;2023-07-13T12:55:46;26.50;62.20
66190;DHT22;52992;52.084;5.412;2023-07-13T13:01:00;26.50;59.70
66190;DHT22;52992;52.084;5.412;2023-07-13T13:08:36;26.80;60.40
66190;DHT22;52992;52.084;5.412;2023-07-13T13:11:04;26.70;59.00
66190;DHT22;52992;52.084;5.412;2023-07-13T13:13:31;26.50;58.90
66190;DHT22;52992;52.084;5.412;2023-07-13T13:16:23;26.50;58.20
66190;DHT22;52992;52.084;5.412;2023-07-13T13:18:54;26.20;55.00
66190;DHT22;52992;52.084;5.412;2023-07-13T13:21:25;26.00;56.10
66190;DHT22;52992;52.084;5.412;2023-07-13T13:23:53;25.80;56.20
66190;DHT22;52992;52.084;5.412;2023-07-13T13:26:22;25.70;54.90
66190;DHT22;52992;52.084;5.412;2023-07-13T13:28:49;25.60;54.90
66190;DHT22;52992;52.084;5.412;2023-07-13T13:31:19;25.40;54.50
66190;DHT22;52992;52.084;5.412;2023-07-13T13:33:46;25.30;54.10
66190;DHT22;52992;52.084;5.412;2023-07-13T13:36:22;25.10;52.70
66190;DHT22;52992;52.084;5.412;2023-07-13T13:38:50;24.90;53.70
66190;DHT22;52992;52.084;5.412;2023-07-13T13:41:19;24.80;52.90
66190;DHT22;52992;52.084;5.412;2023-07-13T13:43:49;24.70;52.90
66190;DHT22;52992;52.084;5.412;2023-07-13T13:46:23;24.60;52.90
66190;DHT22;52992;52.084;5.412;2023-07-13T13:48:52;24.80;52.40
66190;DHT22;52992;52.084;5.412;2023-07-13T13:51:23;24.90;52.30
66190;DHT22;52992;52.084;5.412;2023-07-13T13:53:51;24.90;51.70
66190;DHT22;52992;52.084;5.412;2023-07-13T13:56:22;25.00;52.40
66190;DHT22;52992;52.084;5.412;2023-07-13T13:58:50;25.10;51.40
66190;DHT22;52992;52.084;5.412;2023-07-13T14:01:22;25.30;51.20
66190;DHT22;52992;52.084;5.412;2023-07-13T14:03:51;25.30;51.50
66190;DHT22;52992;52.084;5.412;2023-07-13T14:06:22;25.30;51.30
66190;DHT22;52992;52.084;5.412;2023-07-13T14:08:49;25.40;50.30
66190;DHT22;52992;52.084;5.412;2023-07-13T14:11:19;25.40;50.60
66190;DHT22;52992;52.084;5.412;2023-07-13T14:13:53;25.50;50.20
66190;DHT22;52992;52.084;5.412;2023-07-13T14:16:29;25.60;49.80
66190;DHT22;52992;52.084;5.412;2023-07-13T14:18:59;25.50;49.50
66190;DHT22;52992;52.084;5.412;2023-07-13T14:21:28;25.50;49.30
66190;DHT22;52992;52.084;5.412;2023-07-13T14:23:58;25.60;49.40
66190;DHT22;52992;52.084;5.412;2023-07-13T14:26:26;25.80;48.00
66190;DHT22;52992;52.084;5.412;2023-07-13T14:28:55;25.90;47.90
66190;DHT22;52992;52.084;5.412;2023-07-13T14:31:24;25.80;48.20
66190;DHT22;52992;52.084;5.412;2023-07-13T14:33:56;25.80;47.10
66190;DHT22;52992;52.084;5.412;2023-07-13T14:36:37;25.70;47.30
66190;DHT22;52992;52.084;5.412;2023-07-13T14:39:22;25.70;47.90
66190;DHT22;52992;52.084;5.412;2023-07-13T14:41:54;25.70;48.20
66190;DHT22;52992;52.084;5.412;2023-07-13T14:44:27;25.70;46.70
66190;DHT22;52992;52.084;5.412;2023-07-13T14:46:58;25.80;47.70
66190;DHT22;52992;52.084;5.412;2023-07-13T14:49:39;25.90;48.40
66190;DHT22;52992;52.084;5.412;2023-07-13T14:52:16;25.90;46.20
66190;DHT22;52992;52.084;5.412;2023-07-13T14:54:45;26.00;46.50
66190;DHT22;52992;52.084;5.412;2023-07-13T14:57:14;26.10;47.20
66190;DHT22;52992;52.084;5.412;2023-07-13T14:59:42;26.10;46.20
66190;DHT22;52992;52.084;5.412;2023-07-13T15:04:53;26.00;46.50
66190;DHT22;52992;52.084;5.412;2023-07-13T15:07:21;25.90;45.40
66190;DHT22;52992;52.084;5.412;2023-07-13T15:09:50;25.80;45.20
66190;DHT22;52992;52.084;5.412;2023-07-13T15:12:18;25.90;46.70
66190;DHT22;52992;52.084;5.412;2023-07-13T15:14:45;25.90;46.20
66190;DHT22;52992;52.084;5.412;2023-07-13T15:17:37;26.00;46.90
66190;DHT22;52992;52.084;5.412;2023-07-13T15:20:29;26.10;46.90
66190;DHT22;52992;52.084;5.412;2023-07-13T15:23:00;26.10;46.70
66190;DHT22;52992;52.084;5.412;2023-07-13T15:25:29;26.00;46.50
66190;DHT22;52992;52.084;5.412;2023-07-13T15:27:57;26.20;46.30
66190;DHT22;52992;52.084;5.412;2023-07-13T15:30:27;26.40;46.00
66190;DHT22;52992;52.084;5.412;2023-07-13T15:32:57;26.30;45.30
66190;DHT22;52992;52.084;5.412;2023-07-13T15:35:27;26.30;46.40
66190;DHT22;52992;52.084;5.412;2023-07-13T15:37:55;26.30;45.50
66190;DHT22;52992;52.084;5.412;2023-07-13T15:40:23;26.30;44.70
66190;DHT22;52992;52.084;5.412;2023-07-13T15:42:51;26.20;44.50
66190;DHT22;52992;52.084;5.412;2023-07-13T15:45:23;26.20;45.30
66190;DHT22;52992;52.084;5.412;2023-07-13T15:47:53;26.10;44.00
66190;DHT22;52992;52.084;5.412;2023-07-13T15:50:23;26.10;44.40
66190;DHT22;52992;52.084;5.412;2023-07-13T15:52:55;25.90;43.50
66190;DHT22;52992;52.084;5.412;2023-07-13T15:55:28;25.90;43.50
66190;DHT22;52992;52.084;5.412;2023-07-13T15:57:56;25.80;43.80
66190;DHT22;52992;52.084;5.412;2023-07-13T16:00:26;25.80;44.80
66190;DHT22;52992;52.084;5.412;2023-07-13T16:02:53;25.80;45.10
66190;DHT22;52992;52.084;5.412;2023-07-13T16:05:23;25.80;45.40
66190;DHT22;52992;52.084;5.412;2023-07-13T16:07:51;25.80;45.50
66190;DHT22;52992;52.084;5.412;2023-07-13T16:10:25;25.80;45.80
66190;DHT22;52992;52.084;5.412;2023-07-13T16:12:53;25.80;45.10
66190;DHT22;52992;52.084;5.412;2023-07-13T16:15:22;25.80;44.80
66190;DHT22;52992;52.084;5.412;2023-07-13T16:17:50;25.80;43.70
66190;DHT22;52992;52.084;5.412;2023-07-13T16:20:18;25.80;43.90
66190;DHT22;52992;52.084;5.412;2023-07-13T16:22:51;25.80;43.60
66190;DHT22;52992;52.084;5.412;2023-07-13T16:25:21;25.80;42.60
66190;DHT22;52992;52.084;5.412;2023-07-13T16:27:53;25.80;43.70
66190;DHT22;52992;52.084;5.412;2023-07-13T16:30:29;25.90;43.80
66190;DHT22;52992;52.084;5.412;2023-07-13T16:32:57;25.90;44.00
66190;DHT22;52992;52.084;5.412;2023-07-13T16:35:27;26.00;44.80
66190;DHT22;52992;52.084;5.412;2023-07-13T16:37:55;26.10;45.30
66190;DHT22;52992;52.084;5.412;2023-07-13T16:40:31;26.00;45.20
66190;DHT22;52992;52.084;5.412;2023-07-13T16:42:59;25.90;42.80
66190;DHT22;52992;52.084;5.412;2023-07-13T16:45:31;25.90;42.40
66190;DHT22;52992;52.084;5.412;2023-07-13T16:48:12;25.80;43.20
66190;DHT22;52992;52.084;5.412;2023-07-13T16:50:43;25.70;43.50